Century Gold — 3EYZ9 — position and weather

sailwx.info

Track history (hours):
 
Tides and Currents Weather Stations Pressure Air Temp Water Temp Dewpoint Dewpoint Depression Visibility Wind Speed Wind Dir Waves Ship Positions

Century Gold

Last reported at 2018-Apr-19 12:02 UTC. Time now 2018-Apr-25 06:59 UTC.
Position N 36°58' W 075°46'.

Length 137 m; draft 6.4 m.

Type: Cargo ship. MMSI: 374106000.

Date/timePositionNaut miles runAvg speedWind from/ knotsBaromVisibWave heightAir tempDewpointWater temp
2018-Apr-19 12:02N 36°58' W 075°46'110.2
2018-Apr-19 11:58N 36°57' W 075°47'510.3
2018-Apr-19 11:30N 36°56' W 075°52'611.5
2018-Apr-19 11:00N 36°57' W 075°60'613.1
2018-Apr-19 10:30N 36°59' W 076°07'1012.2
2018-Apr-19 09:40N 36°57' W 076°20'210.4
2018-Apr-19 09:30N 36°56' W 076°20'5 9.4
2018-Apr-19 09:00N 36°51' W 076°18'2 4.8
2018-Apr-19 08:30N 36°49' W 076°17'0 0.0
2018-Apr-19 07:16N 36°49' W 076°17'0 0.0
2018-Apr-19 06:58N 36°49' W 076°17'0 0.0
2018-Apr-19 06:28N 36°49' W 076°17'0 0.0
2018-Apr-19 05:58N 36°49' W 076°17'0 0.0
2018-Apr-19 05:28N 36°49' W 076°17'0 0.0
2018-Apr-19 04:58N 36°49' W 076°17'0 0.0
2018-Apr-19 04:28N 36°49' W 076°17'0 0.0
2018-Apr-19 03:58N 36°49' W 076°17'0 0.0
2018-Apr-19 03:28N 36°49' W 076°17'0 0.0
2018-Apr-19 02:58N 36°49' W 076°17'0 0.0
2018-Apr-19 02:28N 36°49' W 076°17'0 0.0
2018-Apr-19 01:58N 36°49' W 076°17'0 0.0
2018-Apr-19 01:28N 36°49' W 076°17'0 0.0
2018-Apr-19 00:58N 36°49' W 076°17'0 0.0
2018-Apr-19 00:28N 36°49' W 076°17'0 0.0
2018-Apr-18 23:58N 36°49' W 076°17'0 0.0
2018-Apr-18 23:28N 36°49' W 076°17'0 0.0
2018-Apr-18 22:58N 36°49' W 076°17'0 0.0
2018-Apr-18 22:28N 36°49' W 076°17'0 0.0
2018-Apr-18 21:58N 36°49' W 076°17'0 0.0
2018-Apr-18 21:28N 36°49' W 076°17'0 0.0
2018-Apr-18 20:58N 36°49' W 076°17'0 0.0
2018-Apr-18 20:28N 36°49' W 076°17'0 0.0
2018-Apr-18 19:55N 36°49' W 076°17'0 0.0
2018-Apr-18 19:28N 36°49' W 076°17'0 0.0
2018-Apr-18 18:58N 36°49' W 076°17'0 0.0
2018-Apr-18 18:28N 36°49' W 076°17'0 0.0
2018-Apr-18 17:58N 36°49' W 076°17'0 0.0
2018-Apr-18 17:28N 36°49' W 076°17'0 0.0
2018-Apr-18 16:58N 36°49' W 076°17'0 0.0
2018-Apr-18 16:28N 36°49' W 076°17'0 0.0
2018-Apr-18 15:58N 36°49' W 076°17'0 0.0
2018-Apr-18 15:28N 36°49' W 076°17'0 0.0
2018-Apr-18 14:59N 36°49' W 076°17'1 3.0
2018-Apr-18 14:30N 36°50' W 076°18'4 7.1
2018-Apr-18 14:00N 36°53' W 076°20'510.0
2018-Apr-18 13:30N 36°58' W 076°20'1013.3
2018-Apr-18 12:45N 36°59' W 076°08'314.0
2018-Apr-18 12:30N 36°58' W 076°04'611.4
2018-Apr-18 12:00N 36°57' W 075°57'5 9.6
2018-Apr-18 11:30N 36°57' W 075°51'178 9.8
2018-Apr-17 17:24N 39°29' W 073°54'512.2
2018-Apr-17 16:58N 39°34' W 073°53'612.4
2018-Apr-17 16:30N 39°40' W 073°52'713.4
2018-Apr-17 16:00N 39°47' W 073°51'3113.5
2018-Apr-17 13:43N 40°17' W 073°49'513.6
2018-Apr-17 13:23N 40°22' W 073°49'512.6
2018-Apr-17 12:58N 40°27' W 073°50'511.1
2018-Apr-17 12:30N 40°30' W 073°56'510.5
2018-Apr-17 12:00N 40°33' W 074°02'611.2
2018-Apr-17 11:30N 40°38' W 074°03'1 1.4
2018-Apr-17 11:00N 40°39' W 074°03'0 0.1
2018-Apr-17 10:30N 40°39' W 074°03'0 0.1
2018-Apr-17 10:00N 40°39' W 074°03'0 0.0
2018-Apr-17 09:30N 40°39' W 074°03'0 0.1
2018-Apr-17 09:00N 40°39' W 074°03'0 0.0
2018-Apr-17 08:30N 40°39' W 074°03'0 0.0
2018-Apr-17 08:00N 40°39' W 074°03'0 0.0
2018-Apr-17 07:30N 40°39' W 074°03'0 0.0
2018-Apr-17 07:00N 40°39' W 074°03'0 0.0
2018-Apr-17 06:30N 40°39' W 074°03'0 0.9
2018-Apr-17 06:00N 40°39' W 074°03'3 6.0
2018-Apr-17 05:31N 40°42' W 074°02'510.6
2018-Apr-17 05:00N 40°47' W 073°60'612.2
2018-Apr-17 04:30N 40°52' W 073°56'3 6.9
2018-Apr-17 03:59N 40°56' W 073°54'0 0.0
2018-Apr-17 03:14N 40°56' W 073°54'0 0.0
2018-Apr-17 02:56N 40°56' W 073°54'0 0.0
2018-Apr-17 00:53N 40°56' W 073°54'0 0.0
2018-Apr-17 00:23N 40°56' W 073°54'0 0.0
2018-Apr-16 23:47N 40°56' W 073°54'0 0.0
2018-Apr-16 23:23N 40°56' W 073°54'0 0.0
2018-Apr-16 22:38N 40°56' W 073°54'0 0.0
2018-Apr-16 22:29N 40°56' W 073°54'0 0.0
2018-Apr-16 21:59N 40°56' W 073°54'0 0.0
2018-Apr-16 21:29N 40°56' W 073°54'0 0.0
2018-Apr-16 20:53N 40°56' W 073°54'0 0.0
2018-Apr-16 20:29N 40°56' W 073°54'0 0.0
2018-Apr-16 19:59N 40°56' W 073°54'0 0.0
2018-Apr-16 19:29N 40°56' W 073°54'0 0.0
2018-Apr-16 18:56N 40°56' W 073°54'0 0.0
2018-Apr-16 18:26N 40°56' W 073°54'0 0.0
2018-Apr-16 17:56N 40°56' W 073°54'0 0.0
2018-Apr-16 09:53N 40°56' W 073°54'0 0.0
2018-Apr-16 09:17N 40°56' W 073°54'0 0.0
2018-Apr-16 08:41N 40°56' W 073°54'0 0.0
2018-Apr-16 08:29N 40°56' W 073°54'0 0.0
2018-Apr-16 07:59N 40°56' W 073°54'0 0.0
2018-Apr-16 05:20N 40°56' W 073°54'0 0.0
2018-Apr-16 01:02N 40°56' W 073°54'0 0.1
2018-Apr-16 00:56N 40°56' W 073°54'0 0.0
2018-Apr-16 00:20N 40°56' W 073°54'0 0.0
2018-Apr-15 22:20N 40°56' W 073°54'0 0.0
2018-Apr-15 17:05N 40°56' W 073°54'0 0.0
2018-Apr-15 15:59N 40°56' W 073°54'0 0.0
2018-Apr-15 14:26N 40°56' W 073°54'0 0.0
2018-Apr-15 13:59N 40°56' W 073°54'0 0.0
2018-Apr-15 07:23N 40°56' W 073°54'0 0.0
2018-Apr-15 06:59N 40°56' W 073°54'0 0.0
2018-Apr-15 06:23N 40°56' W 073°54'0 0.0
2018-Apr-15 05:47N 40°56' W 073°54'0 0.0
2018-Apr-15 04:47N 40°56' W 073°54'0 0.0
2018-Apr-15 04:23N 40°56' W 073°54'0 0.0
2018-Apr-15 03:59N 40°56' W 073°54'0 0.0
2018-Apr-15 03:29N 40°56' W 073°54'0 0.0
2018-Apr-15 02:56N 40°56' W 073°54'0 0.0
2018-Apr-15 02:29N 40°56' W 073°54'0 0.0
2018-Apr-15 01:41N 40°56' W 073°54'0 0.0
2018-Apr-15 01:29N 40°56' W 073°54'0 0.0
2018-Apr-15 00:29N 40°56' W 073°54'0 0.0
2018-Apr-14 23:59N 40°56' W 073°54'0 0.0
2018-Apr-14 22:53N 40°56' W 073°54'0 0.0
2018-Apr-14 22:29N 40°56' W 073°54'0 0.0
2018-Apr-14 21:56N 40°56' W 073°54'0 0.0
2018-Apr-14 21:23N 40°56' W 073°54'0 0.0
2018-Apr-14 20:59N 40°56' W 073°54'0 0.0
2018-Apr-14 20:23N 40°56' W 073°54'0 0.0
2018-Apr-14 19:59N 40°56' W 073°54'0 0.0
2018-Apr-14 19:29N 40°56' W 073°54'0 0.0
2018-Apr-14 18:53N 40°56' W 073°54'0 0.0
2018-Apr-14 18:29N 40°56' W 073°54'0 0.0
2018-Apr-14 16:47N 40°56' W 073°54'0 0.0
2018-Apr-14 16:23N 40°56' W 073°54'0 0.0
2018-Apr-14 15:59N 40°56' W 073°54'0 0.0
2018-Apr-14 15:23N 40°56' W 073°54'0 0.0
2018-Apr-14 14:56N 40°56' W 073°54'0 0.0
2018-Apr-14 14:29N 40°56' W 073°54'0 0.0
2018-Apr-14 13:59N 40°56' W 073°54'0 0.0
2018-Apr-14 13:14N 40°56' W 073°54'0 0.0
2018-Apr-14 12:59N 40°56' W 073°54'0 0.0
2018-Apr-14 12:17N 40°56' W 073°54'0 0.0
2018-Apr-14 11:56N 40°56' W 073°54'0 0.0
2018-Apr-14 11:29N 40°56' W 073°54'0 0.0
2018-Apr-14 10:59N 40°56' W 073°54'0 0.0
2018-Apr-14 10:23N 40°56' W 073°54'0 0.0
2018-Apr-14 09:59N 40°56' W 073°54'0 0.0
2018-Apr-14 09:29N 40°56' W 073°54'0 0.0
2018-Apr-14 08:53N 40°56' W 073°54'0 0.0
2018-Apr-14 08:29N 40°56' W 073°54'0 0.0
2018-Apr-14 07:53N 40°56' W 073°54'0 0.0
2018-Apr-14 07:11N 40°56' W 073°54'0 0.0
2018-Apr-14 06:53N 40°56' W 073°54'0 0.0
2018-Apr-14 06:23N 40°56' W 073°54'0 0.0
2018-Apr-14 05:59N 40°56' W 073°54'0 0.0
2018-Apr-14 05:17N 40°56' W 073°54'0 0.0
2018-Apr-14 04:59N 40°56' W 073°54'0 0.0
2018-Apr-14 04:29N 40°56' W 073°54'0 0.0
2018-Apr-14 03:59N 40°56' W 073°54'0 0.0
2018-Apr-14 03:23N 40°56' W 073°54'0 0.0
2018-Apr-14 02:59N 40°56' W 073°54'0 0.0
2018-Apr-14 02:29N 40°56' W 073°54'0 0.0
2018-Apr-14 01:59N 40°56' W 073°54'0 0.0
2018-Apr-14 01:29N 40°56' W 073°54'0 0.0
2018-Apr-14 00:53N 40°56' W 073°54'0 0.0
2018-Apr-14 00:29N 40°56' W 073°54'0 0.0
2018-Apr-13 23:59N 40°56' W 073°54'0 0.0
2018-Apr-13 22:20N 40°56' W 073°54'0 0.0
2018-Apr-13 21:59N 40°56' W 073°54'0 0.0
2018-Apr-13 21:29N 40°56' W 073°54'0 0.0
2018-Apr-13 20:59N 40°56' W 073°54'0 0.0
2018-Apr-13 20:26N 40°56' W 073°54'0 0.0
2018-Apr-13 19:53N 40°56' W 073°54'0 0.0
2018-Apr-13 19:26N 40°56' W 073°54'0 0.0
2018-Apr-13 18:56N 40°56' W 073°54'0 0.0
2018-Apr-13 18:26N 40°56' W 073°54'0 0.0
2018-Apr-13 17:59N 40°56' W 073°54'0 0.0
2018-Apr-13 17:23N 40°56' W 073°54'0 0.0
2018-Apr-13 16:08N 40°56' W 073°54'0 0.0
2018-Apr-13 15:56N 40°56' W 073°54'0 0.0
2018-Apr-13 15:29N 40°56' W 073°54'0 0.0
2018-Apr-13 14:44N 40°56' W 073°54'0 0.0
2018-Apr-13 14:29N 40°56' W 073°54'0 0.0
2018-Apr-13 13:41N 40°56' W 073°54'0 0.0
2018-Apr-13 13:20N 40°56' W 073°54'0 0.0
2018-Apr-13 12:59N 40°56' W 073°54'0 0.0
2018-Apr-13 12:17N 40°56' W 073°54'0 0.0
2018-Apr-13 11:53N 40°56' W 073°54'0 0.0
2018-Apr-13 11:17N 40°56' W 073°54'0 0.0
2018-Apr-13 10:59N 40°56' W 073°54'0 0.0
2018-Apr-13 10:29N 40°56' W 073°54'0 0.0
2018-Apr-13 09:53N 40°56' W 073°54'0 0.0
2018-Apr-13 09:29N 40°56' W 073°54'0 0.0
2018-Apr-13 08:59N 40°56' W 073°54'0 0.0
2018-Apr-13 08:29N 40°56' W 073°54'0 0.0
2018-Apr-13 07:53N 40°56' W 073°54'0 0.0
2018-Apr-13 07:29N 40°56' W 073°54'0 0.0
2018-Apr-13 06:47N 40°56' W 073°54'0 0.0
2018-Apr-13 06:29N 40°56' W 073°54'0 0.0
2018-Apr-13 05:56N 40°56' W 073°54'0 0.0
2018-Apr-13 05:26N 40°56' W 073°54'0 0.0
2018-Apr-13 04:56N 40°56' W 073°54'0 0.0
2018-Apr-13 04:29N 40°56' W 073°54'0 0.0
2018-Apr-13 03:59N 40°56' W 073°54'0 0.0
2018-Apr-13 03:29N 40°56' W 073°54'0 0.0
2018-Apr-13 02:35N 40°56' W 073°54'0 0.0
2018-Apr-13 02:29N 40°56' W 073°54'0 0.0
2018-Apr-13 01:47N 40°56' W 073°54'0 0.0
2018-Apr-13 01:29N 40°56' W 073°54'0 0.0
2018-Apr-13 00:59N 40°56' W 073°54'0 0.0
2018-Apr-13 00:29N 40°56' W 073°54'0 0.0
2018-Apr-12 23:59N 40°56' W 073°54'0 0.0
2018-Apr-12 23:29N 40°56' W 073°54'0 0.0
2018-Apr-12 22:41N 40°56' W 073°54'0 0.0
2018-Apr-12 22:23N 40°56' W 073°54'0 0.0
2018-Apr-12 21:35N 40°56' W 073°54'0 0.0
2018-Apr-12 21:29N 40°56' W 073°54'0 0.0
2018-Apr-12 20:56N 40°56' W 073°54'0 0.0
2018-Apr-12 20:23N 40°56' W 073°54'0 0.0
2018-Apr-12 19:41N 40°56' W 073°54'0 0.0
2018-Apr-12 18:47N 40°56' W 073°54'0 0.0
2018-Apr-12 18:29N 40°56' W 073°54'0 0.0
2018-Apr-12 17:59N 40°56' W 073°54'0 0.0
2018-Apr-12 17:26N 40°56' W 073°54'0 0.0
2018-Apr-12 16:59N 40°56' W 073°54'0 0.0
2018-Apr-12 15:05N 40°56' W 073°54'0 0.1
2018-Apr-12 14:59N 40°56' W 073°54'0 0.0
2018-Apr-12 14:29N 40°56' W 073°54'0 0.0
2018-Apr-12 13:59N 40°56' W 073°54'0 0.0
2018-Apr-12 12:53N 40°56' W 073°54'0 0.0
2018-Apr-12 12:23N 40°56' W 073°54'0 0.0
2018-Apr-12 11:59N 40°56' W 073°54'0 0.0
2018-Apr-12 11:29N 40°56' W 073°54'0 0.0
2018-Apr-12 10:56N 40°56' W 073°54'0 0.0
2018-Apr-12 07:59N 40°56' W 073°54'0 0.0
2018-Apr-12 07:14N 40°56' W 073°54'0 0.0
2018-Apr-12 06:59N 40°56' W 073°54'0 0.0
2018-Apr-12 06:29N 40°56' W 073°54'0 0.0
2018-Apr-12 05:53N 40°56' W 073°54'0 0.0
2018-Apr-12 05:11N 40°56' W 073°54'0 0.0
2018-Apr-12 04:59N 40°56' W 073°54'0 0.0
2018-Apr-12 04:29N 40°56' W 073°54'0 0.0
2018-Apr-12 03:59N 40°56' W 073°54'0 0.0
2018-Apr-12 03:29N 40°56' W 073°54'0 0.0
2018-Apr-12 02:38N 40°56' W 073°54'0 0.0
2018-Apr-12 02:20N 40°56' W 073°54'0 0.0
2018-Apr-12 01:50N 40°56' W 073°54'0 0.0
2018-Apr-11 23:02N 40°56' W 073°54'0 0.1
2018-Apr-11 22:56N 40°56' W 073°54'0 0.0
2018-Apr-11 22:30N 40°56' W 073°54'1 1.8
2018-Apr-11 22:00N 40°55' W 073°55'5 9.4
2018-Apr-11 21:30N 40°51' W 073°57'611.4
2018-Apr-11 21:00N 40°46' W 074°01'611.2
2018-Apr-11 20:30N 40°40' W 074°03'611.3
2018-Apr-11 19:59N 40°34' W 074°02'511.0
2018-Apr-11 19:30N 40°30' W 073°57'510.0
2018-Apr-11 19:00N 40°28' W 073°51'  
Track history (hours):
 
Tides and Currents Weather Stations Pressure Air Temp Water Temp Dewpoint Dewpoint Depression Visibility Wind Speed Wind Dir Waves Ship Positions

Century Gold

Last reported at 2018-Apr-19 12:02 UTC. Time now 2018-Apr-25 06:59 UTC.
Position N 36°58' W 075°46'.

Length 137 m; draft 6.4 m.

Type: Cargo ship. MMSI: 374106000.

Date/timePositionNaut miles runAvg speedWind from/ knotsBaromVisibWave heightAir tempDewpointWater temp
2018-Apr-19 12:02N 36°58' W 075°46'110.2
2018-Apr-19 11:58N 36°57' W 075°47'510.3
2018-Apr-19 11:30N 36°56' W 075°52'611.5
2018-Apr-19 11:00N 36°57' W 075°60'613.1
2018-Apr-19 10:30N 36°59' W 076°07'1012.2
2018-Apr-19 09:40N 36°57' W 076°20'210.4
2018-Apr-19 09:30N 36°56' W 076°20'5 9.4
2018-Apr-19 09:00N 36°51' W 076°18'2 4.8
2018-Apr-19 08:30N 36°49' W 076°17'0 0.0
2018-Apr-19 07:16N 36°49' W 076°17'0 0.0
2018-Apr-19 06:58N 36°49' W 076°17'0 0.0
2018-Apr-19 06:28N 36°49' W 076°17'0 0.0
2018-Apr-19 05:58N 36°49' W 076°17'0 0.0
2018-Apr-19 05:28N 36°49' W 076°17'0 0.0
2018-Apr-19 04:58N 36°49' W 076°17'0 0.0
2018-Apr-19 04:28N 36°49' W 076°17'0 0.0
2018-Apr-19 03:58N 36°49' W 076°17'0 0.0
2018-Apr-19 03:28N 36°49' W 076°17'0 0.0
2018-Apr-19 02:58N 36°49' W 076°17'0 0.0
2018-Apr-19 02:28N 36°49' W 076°17'0 0.0
2018-Apr-19 01:58N 36°49' W 076°17'0 0.0
2018-Apr-19 01:28N 36°49' W 076°17'0 0.0
2018-Apr-19 00:58N 36°49' W 076°17'0 0.0
2018-Apr-19 00:28N 36°49' W 076°17'0 0.0
2018-Apr-18 23:58N 36°49' W 076°17'0 0.0
2018-Apr-18 23:28N 36°49' W 076°17'0 0.0
2018-Apr-18 22:58N 36°49' W 076°17'0 0.0
2018-Apr-18 22:28N 36°49' W 076°17'0 0.0
2018-Apr-18 21:58N 36°49' W 076°17'0 0.0
2018-Apr-18 21:28N 36°49' W 076°17'0 0.0
2018-Apr-18 20:58N 36°49' W 076°17'0 0.0
2018-Apr-18 20:28N 36°49' W 076°17'0 0.0
2018-Apr-18 19:55N 36°49' W 076°17'0 0.0
2018-Apr-18 19:28N 36°49' W 076°17'0 0.0
2018-Apr-18 18:58N 36°49' W 076°17'0 0.0
2018-Apr-18 18:28N 36°49' W 076°17'0 0.0
2018-Apr-18 17:58N 36°49' W 076°17'0 0.0
2018-Apr-18 17:28N 36°49' W 076°17'0 0.0
2018-Apr-18 16:58N 36°49' W 076°17'0 0.0
2018-Apr-18 16:28N 36°49' W 076°17'0 0.0
2018-Apr-18 15:58N 36°49' W 076°17'0 0.0
2018-Apr-18 15:28N 36°49' W 076°17'0 0.0
2018-Apr-18 14:59N 36°49' W 076°17'1 3.0
2018-Apr-18 14:30N 36°50' W 076°18'4 7.1
2018-Apr-18 14:00N 36°53' W 076°20'510.0
2018-Apr-18 13:30N 36°58' W 076°20'1013.3
2018-Apr-18 12:45N 36°59' W 076°08'314.0
2018-Apr-18 12:30N 36°58' W 076°04'611.4
2018-Apr-18 12:00N 36°57' W 075°57'5 9.6
2018-Apr-18 11:30N 36°57' W 075°51'178 9.8
2018-Apr-17 17:24N 39°29' W 073°54'512.2
2018-Apr-17 16:58N 39°34' W 073°53'612.4
2018-Apr-17 16:30N 39°40' W 073°52'713.4
2018-Apr-17 16:00N 39°47' W 073°51'3113.5
2018-Apr-17 13:43N 40°17' W 073°49'513.6
2018-Apr-17 13:23N 40°22' W 073°49'512.6
2018-Apr-17 12:58N 40°27' W 073°50'511.1
2018-Apr-17 12:30N 40°30' W 073°56'510.5
2018-Apr-17 12:00N 40°33' W 074°02'611.2
2018-Apr-17 11:30N 40°38' W 074°03'1 1.4
2018-Apr-17 11:00N 40°39' W 074°03'0 0.1
2018-Apr-17 10:30N 40°39' W 074°03'0 0.1
2018-Apr-17 10:00N 40°39' W 074°03'0 0.0
2018-Apr-17 09:30N 40°39' W 074°03'0 0.1
2018-Apr-17 09:00N 40°39' W 074°03'0 0.0
2018-Apr-17 08:30N 40°39' W 074°03'0 0.0
2018-Apr-17 08:00N 40°39' W 074°03'0 0.0
2018-Apr-17 07:30N 40°39' W 074°03'0 0.0
2018-Apr-17 07:00N 40°39' W 074°03'0 0.0
2018-Apr-17 06:30N 40°39' W 074°03'0 0.9
2018-Apr-17 06:00N 40°39' W 074°03'3 6.0
2018-Apr-17 05:31N 40°42' W 074°02'510.6
2018-Apr-17 05:00N 40°47' W 073°60'612.2
2018-Apr-17 04:30N 40°52' W 073°56'3 6.9
2018-Apr-17 03:59N 40°56' W 073°54'0 0.0
2018-Apr-17 03:14N 40°56' W 073°54'0 0.0
2018-Apr-17 02:56N 40°56' W 073°54'0 0.0
2018-Apr-17 00:53N 40°56' W 073°54'0 0.0
2018-Apr-17 00:23N 40°56' W 073°54'0 0.0
2018-Apr-16 23:47N 40°56' W 073°54'0 0.0
2018-Apr-16 23:23N 40°56' W 073°54'0 0.0
2018-Apr-16 22:38N 40°56' W 073°54'0 0.0
2018-Apr-16 22:29N 40°56' W 073°54'0 0.0
2018-Apr-16 21:59N 40°56' W 073°54'0 0.0
2018-Apr-16 21:29N 40°56' W 073°54'0 0.0
2018-Apr-16 20:53N 40°56' W 073°54'0 0.0
2018-Apr-16 20:29N 40°56' W 073°54'0 0.0
2018-Apr-16 19:59N 40°56' W 073°54'0 0.0
2018-Apr-16 19:29N 40°56' W 073°54'0 0.0
2018-Apr-16 18:56N 40°56' W 073°54'0 0.0
2018-Apr-16 18:26N 40°56' W 073°54'0 0.0
2018-Apr-16 17:56N 40°56' W 073°54'0 0.0
2018-Apr-16 09:53N 40°56' W 073°54'0 0.0
2018-Apr-16 09:17N 40°56' W 073°54'0 0.0
2018-Apr-16 08:41N 40°56' W 073°54'0 0.0
2018-Apr-16 08:29N 40°56' W 073°54'0 0.0
2018-Apr-16 07:59N 40°56' W 073°54'0 0.0
2018-Apr-16 05:20N 40°56' W 073°54'0 0.0
2018-Apr-16 01:02N 40°56' W 073°54'0 0.1
2018-Apr-16 00:56N 40°56' W 073°54'0 0.0
2018-Apr-16 00:20N 40°56' W 073°54'0 0.0
2018-Apr-15 22:20N 40°56' W 073°54'0 0.0
2018-Apr-15 17:05N 40°56' W 073°54'0 0.0
2018-Apr-15 15:59N 40°56' W 073°54'0 0.0
2018-Apr-15 14:26N 40°56' W 073°54'0 0.0
2018-Apr-15 13:59N 40°56' W 073°54'0 0.0
2018-Apr-15 07:23N 40°56' W 073°54'0 0.0
2018-Apr-15 06:59N 40°56' W 073°54'0 0.0
2018-Apr-15 06:23N 40°56' W 073°54'0 0.0
2018-Apr-15 05:47N 40°56' W 073°54'0 0.0
2018-Apr-15 04:47N 40°56' W 073°54'0 0.0
2018-Apr-15 04:23N 40°56' W 073°54'0 0.0
2018-Apr-15 03:59N 40°56' W 073°54'0 0.0
2018-Apr-15 03:29N 40°56' W 073°54'0 0.0
2018-Apr-15 02:56N 40°56' W 073°54'0 0.0
2018-Apr-15 02:29N 40°56' W 073°54'0 0.0
2018-Apr-15 01:41N 40°56' W 073°54'0 0.0
2018-Apr-15 01:29N 40°56' W 073°54'0 0.0
2018-Apr-15 00:29N 40°56' W 073°54'0 0.0
2018-Apr-14 23:59N 40°56' W 073°54'0 0.0
2018-Apr-14 22:53N 40°56' W 073°54'0 0.0
2018-Apr-14 22:29N 40°56' W 073°54'0 0.0
2018-Apr-14 21:56N 40°56' W 073°54'0 0.0
2018-Apr-14 21:23N 40°56' W 073°54'0 0.0
2018-Apr-14 20:59N 40°56' W 073°54'0 0.0
2018-Apr-14 20:23N 40°56' W 073°54'0 0.0
2018-Apr-14 19:59N 40°56' W 073°54'0 0.0
2018-Apr-14 19:29N 40°56' W 073°54'0 0.0
2018-Apr-14 18:53N 40°56' W 073°54'0 0.0
2018-Apr-14 18:29N 40°56' W 073°54'0 0.0
2018-Apr-14 16:47N 40°56' W 073°54'0 0.0
2018-Apr-14 16:23N 40°56' W 073°54'0 0.0
2018-Apr-14 15:59N 40°56' W 073°54'0 0.0
2018-Apr-14 15:23N 40°56' W 073°54'0 0.0
2018-Apr-14 14:56N 40°56' W 073°54'0 0.0
2018-Apr-14 14:29N 40°56' W 073°54'0 0.0
2018-Apr-14 13:59N 40°56' W 073°54'0 0.0
2018-Apr-14 13:14N 40°56' W 073°54'0 0.0
2018-Apr-14 12:59N 40°56' W 073°54'0 0.0
2018-Apr-14 12:17N 40°56' W 073°54'0 0.0
2018-Apr-14 11:56N 40°56' W 073°54'0 0.0
2018-Apr-14 11:29N 40°56' W 073°54'0 0.0
2018-Apr-14 10:59N 40°56' W 073°54'0 0.0
2018-Apr-14 10:23N 40°56' W 073°54'0 0.0
2018-Apr-14 09:59N 40°56' W 073°54'0 0.0
2018-Apr-14 09:29N 40°56' W 073°54'0 0.0
2018-Apr-14 08:53N 40°56' W 073°54'0 0.0
2018-Apr-14 08:29N 40°56' W 073°54'0 0.0
2018-Apr-14 07:53N 40°56' W 073°54'0 0.0
2018-Apr-14 07:11N 40°56' W 073°54'0 0.0
2018-Apr-14 06:53N 40°56' W 073°54'0 0.0
2018-Apr-14 06:23N 40°56' W 073°54'0 0.0
2018-Apr-14 05:59N 40°56' W 073°54'0 0.0
2018-Apr-14 05:17N 40°56' W 073°54'0 0.0
2018-Apr-14 04:59N 40°56' W 073°54'0 0.0
2018-Apr-14 04:29N 40°56' W 073°54'0 0.0
2018-Apr-14 03:59N 40°56' W 073°54'0 0.0
2018-Apr-14 03:23N 40°56' W 073°54'0 0.0
2018-Apr-14 02:59N 40°56' W 073°54'0 0.0
2018-Apr-14 02:29N 40°56' W 073°54'0 0.0
2018-Apr-14 01:59N 40°56' W 073°54'0 0.0
2018-Apr-14 01:29N 40°56' W 073°54'0 0.0
2018-Apr-14 00:53N 40°56' W 073°54'0 0.0
2018-Apr-14 00:29N 40°56' W 073°54'0 0.0
2018-Apr-13 23:59N 40°56' W 073°54'0 0.0
2018-Apr-13 22:20N 40°56' W 073°54'0 0.0
2018-Apr-13 21:59N 40°56' W 073°54'0 0.0
2018-Apr-13 21:29N 40°56' W 073°54'0 0.0
2018-Apr-13 20:59N 40°56' W 073°54'0 0.0
2018-Apr-13 20:26N 40°56' W 073°54'0 0.0
2018-Apr-13 19:53N 40°56' W 073°54'0 0.0
2018-Apr-13 19:26N 40°56' W 073°54'0 0.0
2018-Apr-13 18:56N 40°56' W 073°54'0 0.0
2018-Apr-13 18:26N 40°56' W 073°54'0 0.0
2018-Apr-13 17:59N 40°56' W 073°54'0 0.0
2018-Apr-13 17:23N 40°56' W 073°54'0 0.0
2018-Apr-13 16:08N 40°56' W 073°54'0 0.0
2018-Apr-13 15:56N 40°56' W 073°54'0 0.0
2018-Apr-13 15:29N 40°56' W 073°54'0 0.0
2018-Apr-13 14:44N 40°56' W 073°54'0 0.0
2018-Apr-13 14:29N 40°56' W 073°54'0 0.0
2018-Apr-13 13:41N 40°56' W 073°54'0 0.0
2018-Apr-13 13:20N 40°56' W 073°54'0 0.0
2018-Apr-13 12:59N 40°56' W 073°54'0 0.0
2018-Apr-13 12:17N 40°56' W 073°54'0 0.0
2018-Apr-13 11:53N 40°56' W 073°54'0 0.0
2018-Apr-13 11:17N 40°56' W 073°54'0 0.0
2018-Apr-13 10:59N 40°56' W 073°54'0 0.0
2018-Apr-13 10:29N 40°56' W 073°54'0 0.0
2018-Apr-13 09:53N 40°56' W 073°54'0 0.0
2018-Apr-13 09:29N 40°56' W 073°54'0 0.0
2018-Apr-13 08:59N 40°56' W 073°54'0 0.0
2018-Apr-13 08:29N 40°56' W 073°54'0 0.0
2018-Apr-13 07:53N 40°56' W 073°54'0 0.0
2018-Apr-13 07:29N 40°56' W 073°54'0 0.0
2018-Apr-13 06:47N 40°56' W 073°54'0 0.0
2018-Apr-13 06:29N 40°56' W 073°54'0 0.0
2018-Apr-13 05:56N 40°56' W 073°54'0 0.0
2018-Apr-13 05:26N 40°56' W 073°54'0 0.0
2018-Apr-13 04:56N 40°56' W 073°54'0 0.0
2018-Apr-13 04:29N 40°56' W 073°54'0 0.0
2018-Apr-13 03:59N 40°56' W 073°54'0 0.0
2018-Apr-13 03:29N 40°56' W 073°54'0 0.0
2018-Apr-13 02:35N 40°56' W 073°54'0 0.0
2018-Apr-13 02:29N 40°56' W 073°54'0 0.0
2018-Apr-13 01:47N 40°56' W 073°54'0 0.0
2018-Apr-13 01:29N 40°56' W 073°54'0 0.0
2018-Apr-13 00:59N 40°56' W 073°54'0 0.0
2018-Apr-13 00:29N 40°56' W 073°54'0 0.0
2018-Apr-12 23:59N 40°56' W 073°54'0 0.0
2018-Apr-12 23:29N 40°56' W 073°54'0 0.0
2018-Apr-12 22:41N 40°56' W 073°54'0 0.0
2018-Apr-12 22:23N 40°56' W 073°54'0 0.0
2018-Apr-12 21:35N 40°56' W 073°54'0 0.0
2018-Apr-12 21:29N 40°56' W 073°54'0 0.0
2018-Apr-12 20:56N 40°56' W 073°54'0 0.0
2018-Apr-12 20:23N 40°56' W 073°54'0 0.0
2018-Apr-12 19:41N 40°56' W 073°54'0 0.0
2018-Apr-12 18:47N 40°56' W 073°54'0 0.0
2018-Apr-12 18:29N 40°56' W 073°54'0 0.0
2018-Apr-12 17:59N 40°56' W 073°54'0 0.0
2018-Apr-12 17:26N 40°56' W 073°54'0 0.0
2018-Apr-12 16:59N 40°56' W 073°54'0 0.0
2018-Apr-12 15:05N 40°56' W 073°54'0 0.1
2018-Apr-12 14:59N 40°56' W 073°54'0 0.0
2018-Apr-12 14:29N 40°56' W 073°54'0 0.0
2018-Apr-12 13:59N 40°56' W 073°54'0 0.0
2018-Apr-12 12:53N 40°56' W 073°54'0 0.0
2018-Apr-12 12:23N 40°56' W 073°54'0 0.0
2018-Apr-12 11:59N 40°56' W 073°54'0 0.0
2018-Apr-12 11:29N 40°56' W 073°54'0 0.0
2018-Apr-12 10:56N 40°56' W 073°54'0 0.0
2018-Apr-12 07:59N 40°56' W 073°54'0 0.0
2018-Apr-12 07:14N 40°56' W 073°54'0 0.0
2018-Apr-12 06:59N 40°56' W 073°54'0 0.0
2018-Apr-12 06:29N 40°56' W 073°54'0 0.0
2018-Apr-12 05:53N 40°56' W 073°54'0 0.0
2018-Apr-12 05:11N 40°56' W 073°54'0 0.0
2018-Apr-12 04:59N 40°56' W 073°54'0 0.0
2018-Apr-12 04:29N 40°56' W 073°54'0 0.0
2018-Apr-12 03:59N 40°56' W 073°54'0 0.0
2018-Apr-12 03:29N 40°56' W 073°54'0 0.0
2018-Apr-12 02:38N 40°56' W 073°54'0 0.0
2018-Apr-12 02:20N 40°56' W 073°54'0 0.0
2018-Apr-12 01:50N 40°56' W 073°54'0 0.0
2018-Apr-11 23:02N 40°56' W 073°54'0 0.1
2018-Apr-11 22:56N 40°56' W 073°54'0 0.0
2018-Apr-11 22:30N 40°56' W 073°54'1 1.8
2018-Apr-11 22:00N 40°55' W 073°55'5 9.4
2018-Apr-11 21:30N 40°51' W 073°57'611.4
2018-Apr-11 21:00N 40°46' W 074°01'611.2
2018-Apr-11 20:30N 40°40' W 074°03'611.3
2018-Apr-11 19:59N 40°34' W 074°02'511.0
2018-Apr-11 19:30N 40°30' W 073°57'510.0
2018-Apr-11 19:00N 40°28' W 073°51'  

Dump ship's entire track history